createdAt,value
2022-10-04T00:01:28.660Z,100.00
2022-10-04T00:04:06.933Z,100.00
2022-10-04T00:06:38.954Z,100.00
2022-10-04T00:09:12.933Z,100.00
2022-10-04T00:11:46.321Z,100.00
2022-10-04T00:14:21.033Z,100.00
2022-10-04T00:16:51.319Z,100.00
2022-10-04T00:19:27.858Z,100.00
2022-10-04T00:22:30.223Z,100.00
2022-10-04T00:25:02.861Z,100.00
2022-10-04T00:27:31.761Z,100.00
2022-10-04T00:30:22.971Z,100.00
2022-10-04T00:33:02.809Z,100.00
2022-10-04T00:35:52.073Z,100.00
2022-10-04T00:38:30.084Z,100.00
2022-10-04T00:41:06.153Z,100.00
2022-10-04T00:43:42.992Z,100.00
2022-10-04T00:46:15.526Z,100.00
2022-10-04T00:48:48.739Z,100.00
2022-10-04T00:51:26.601Z,100.00
2022-10-04T00:54:05.388Z,100.00
2022-10-04T00:56:41.204Z,100.00
2022-10-04T00:59:30.775Z,100.00
2022-10-04T01:02:03.885Z,100.00
2022-10-04T01:04:42.780Z,100.00
2022-10-04T01:07:15.393Z,100.00
2022-10-04T01:09:50.777Z,100.00
2022-10-04T01:12:33.278Z,100.00
2022-10-04T01:15:07.791Z,100.00
2022-10-04T01:17:36.537Z,100.00
2022-10-04T01:20:06.085Z,100.00
2022-10-04T01:22:41.685Z,100.00
2022-10-04T01:25:10.755Z,100.00
2022-10-04T01:27:43.480Z,100.00
2022-10-04T01:30:15.393Z,100.00
2022-10-04T01:32:45.228Z,100.00
2022-10-04T01:35:17.866Z,100.00
2022-10-04T01:37:47.997Z,100.00
2022-10-04T01:40:16.643Z,100.00
2022-10-04T01:42:50.036Z,100.00
2022-10-04T01:45:24.752Z,100.00
2022-10-04T01:47:57.628Z,100.00
2022-10-04T01:50:30.456Z,100.00
2022-10-04T01:53:09.719Z,100.00
2022-10-04T01:55:41.371Z,100.00
2022-10-04T01:58:15.785Z,100.00
2022-10-04T02:00:51.619Z,100.00
2022-10-04T02:03:27.704Z,100.00
2022-10-04T02:06:00.581Z,100.00
2022-10-04T02:08:34.249Z,100.00
2022-10-04T02:11:06.060Z,100.00
2022-10-04T02:13:38.731Z,100.00
2022-10-04T02:16:11.678Z,100.00
2022-10-04T02:18:42.148Z,100.00
2022-10-04T02:21:13.140Z,100.00
2022-10-04T02:23:44.736Z,100.00
2022-10-04T02:26:14.160Z,100.00
2022-10-04T02:28:42.664Z,100.00
2022-10-04T02:31:30.011Z,100.00
2022-10-04T02:34:00.342Z,100.00
2022-10-04T02:36:30.720Z,100.00
2022-10-04T02:39:06.324Z,100.00
2022-10-04T02:41:39.133Z,100.00
2022-10-04T02:44:15.979Z,100.00
2022-10-04T02:46:52.979Z,100.00
2022-10-04T02:49:30.016Z,100.00
2022-10-04T02:52:03.472Z,100.00
2022-10-04T02:54:41.202Z,100.00
2022-10-04T02:57:17.235Z,100.00
2022-10-04T02:59:45.704Z,100.00
2022-10-04T03:02:29.552Z,100.00
2022-10-04T03:05:05.991Z,100.00
2022-10-04T03:07:37.989Z,100.00
2022-10-04T03:10:11.199Z,100.00
2022-10-04T03:12:40.758Z,100.00
2022-10-04T03:15:10.948Z,100.00
2022-10-04T03:17:41.979Z,100.00
2022-10-04T03:20:14.724Z,100.00
2022-10-04T03:22:47.331Z,100.00
2022-10-04T03:25:22.743Z,100.00
2022-10-04T03:27:53.209Z,100.00
2022-10-04T03:30:22.234Z,100.00
2022-10-04T03:32:52.037Z,100.00
2022-10-04T03:35:31.229Z,100.00
2022-10-04T03:38:03.287Z,100.00
2022-10-04T03:40:35.092Z,100.00
2022-10-04T03:43:05.528Z,100.00
2022-10-04T03:45:35.686Z,100.00
2022-10-04T03:48:07.858Z,100.00
2022-10-04T03:50:41.327Z,100.00
2022-10-04T03:53:16.499Z,100.00
2022-10-04T03:55:47.226Z,100.00
2022-10-04T03:58:19.205Z,100.00
2022-10-04T04:00:56.404Z,100.00
2022-10-04T04:03:29.691Z,100.00
2022-10-04T04:06:01.665Z,100.00
2022-10-04T04:08:31.708Z,100.00
2022-10-04T04:11:05.495Z,100.00
2022-10-04T04:13:49.270Z,100.00
2022-10-04T04:16:20.639Z,100.00
2022-10-04T04:18:51.210Z,100.00
2022-10-04T04:21:24.439Z,100.00
2022-10-04T04:23:58.259Z,100.00
2022-10-04T04:26:37.243Z,100.00
2022-10-04T04:29:12.514Z,100.00
2022-10-04T04:31:46.152Z,100.00
2022-10-04T04:34:21.616Z,100.00
2022-10-04T04:36:50.597Z,100.00
2022-10-04T04:39:38.584Z,100.00
2022-10-04T04:42:19.045Z,100.00
2022-10-04T04:44:50.805Z,100.00
2022-10-04T04:47:30.531Z,100.00
2022-10-04T04:50:06.367Z,100.00
2022-10-04T04:52:36.555Z,100.00
2022-10-04T04:55:07.074Z,100.00
2022-10-04T04:57:40.626Z,100.00
2022-10-04T05:00:17.866Z,100.00
2022-10-04T05:02:58.590Z,100.00
2022-10-04T05:05:30.842Z,100.00
2022-10-04T05:08:14.602Z,100.00
2022-10-04T05:10:47.541Z,100.00
2022-10-04T05:13:19.796Z,100.00
2022-10-04T05:15:56.216Z,100.00
2022-10-04T05:18:30.856Z,100.00
2022-10-04T05:21:07.295Z,100.00
2022-10-04T05:23:36.539Z,100.00
2022-10-04T05:26:10.896Z,100.00
2022-10-04T05:28:42.935Z,100.00
2022-10-04T05:31:35.031Z,100.00
2022-10-04T05:34:17.038Z,100.00
2022-10-04T05:36:58.078Z,100.00
2022-10-04T05:39:30.596Z,100.00
2022-10-04T05:42:08.135Z,100.00
2022-10-04T05:44:47.874Z,100.00
2022-10-04T05:47:23.313Z,100.00
2022-10-04T05:49:54.506Z,100.00
2022-10-04T05:52:30.693Z,100.00
2022-10-04T05:55:31.579Z,100.00
2022-10-04T05:58:34.883Z,100.00
2022-10-04T06:01:21.191Z,100.00
2022-10-04T06:04:10.831Z,100.00
2022-10-04T06:06:49.967Z,100.00
2022-10-04T06:09:41.460Z,100.00
2022-10-04T06:12:14.980Z,100.00
2022-10-04T06:15:04.067Z,100.00
2022-10-04T06:17:53.284Z,100.00
2022-10-04T06:21:11.196Z,100.00
2022-10-04T06:23:48.586Z,100.00
2022-10-04T06:26:22.844Z,100.00
2022-10-04T06:28:55.698Z,100.00
2022-10-04T06:32:02.002Z,100.00
2022-10-04T06:35:00.697Z,100.00
2022-10-04T06:38:01.687Z,100.00
2022-10-04T06:41:05.450Z,100.00
2022-10-04T06:43:51.850Z,100.00
2022-10-04T06:46:31.690Z,100.00
2022-10-04T06:49:11.256Z,100.00
2022-10-04T06:52:06.879Z,100.00
2022-10-04T06:54:52.456Z,100.00
2022-10-04T06:57:38.262Z,100.00
2022-10-04T07:00:14.151Z,100.00
2022-10-04T07:02:48.156Z,100.00
2022-10-04T07:05:30.824Z,100.00
2022-10-04T07:08:13.684Z,100.00
2022-10-04T07:10:52.405Z,100.00
2022-10-04T07:13:41.149Z,100.00
2022-10-04T07:16:29.157Z,100.00
2022-10-04T07:19:08.492Z,100.00
2022-10-04T07:21:51.729Z,100.00
2022-10-04T07:24:28.544Z,100.00
2022-10-04T07:26:57.908Z,100.00
2022-10-04T07:29:31.345Z,100.00
2022-10-04T07:32:13.514Z,100.00
2022-10-04T07:34:45.670Z,100.00
2022-10-04T07:37:16.004Z,100.00
2022-10-04T07:39:53.004Z,100.00
2022-10-04T07:42:28.084Z,100.00
2022-10-04T07:45:06.156Z,100.00
2022-10-04T07:47:35.195Z,100.00
2022-10-04T07:50:21.997Z,100.00
2022-10-04T07:53:00.105Z,100.00
2022-10-04T07:55:42.054Z,100.00
2022-10-04T07:58:23.598Z,100.00
2022-10-04T08:00:58.634Z,100.00
2022-10-04T08:03:49.629Z,100.00
2022-10-04T08:06:22.623Z,100.00
2022-10-04T08:09:21.225Z,100.00
2022-10-04T08:12:02.424Z,100.00
2022-10-04T08:14:51.307Z,100.00
2022-10-04T08:17:32.164Z,100.00
2022-10-04T08:20:13.953Z,100.00
2022-10-04T08:23:00.432Z,100.00
2022-10-04T08:25:34.307Z,100.00
2022-10-04T08:28:37.493Z,100.00
2022-10-04T08:31:21.565Z,100.00
2022-10-04T08:34:02.405Z,100.00
2022-10-04T08:36:46.484Z,100.00
2022-10-04T08:39:30.938Z,100.00
2022-10-04T08:42:21.909Z,100.00
2022-10-04T08:45:22.318Z,100.00
2022-10-04T08:48:43.394Z,100.00
2022-10-04T08:51:48.026Z,100.00
2022-10-04T08:54:40.902Z,100.00
2022-10-04T08:57:39.590Z,100.00
2022-10-04T09:00:21.400Z,100.00
2022-10-04T09:03:27.420Z,100.00
2022-10-04T09:06:02.157Z,100.00
2022-10-04T09:09:26.146Z,100.00
2022-10-04T09:12:20.412Z,100.00
2022-10-04T09:15:21.815Z,100.00
2022-10-04T09:17:57.626Z,100.00
2022-10-04T09:20:45.840Z,100.00
2022-10-04T09:23:37.562Z,100.00
2022-10-04T09:26:22.629Z,100.00
2022-10-04T09:29:23.379Z,100.00
2022-10-04T09:32:27.018Z,100.00
2022-10-04T09:35:19.685Z,100.00
2022-10-04T09:38:04.223Z,100.00
2022-10-04T09:41:14.445Z,100.00
2022-10-04T09:44:18.440Z,100.00
2022-10-04T09:47:21.227Z,100.00
2022-10-04T09:50:14.322Z,100.00
2022-10-04T09:52:55.780Z,100.00
2022-10-04T09:55:55.498Z,97.81
2022-10-04T09:58:48.593Z,91.66
2022-10-04T10:01:29.950Z,88.09
2022-10-04T10:04:21.505Z,86.42
2022-10-04T10:07:22.309Z,87.50
2022-10-04T10:10:18.515Z,87.15
2022-10-04T10:13:32.167Z,81.23
2022-10-04T10:16:11.707Z,85.22
2022-10-04T10:18:56.404Z,86.03
2022-10-04T10:21:40.022Z,83.30
2022-10-04T10:24:58.267Z,77.27
2022-10-04T10:28:01.638Z,79.67
2022-10-04T10:30:43.710Z,87.32
2022-10-04T10:33:48.766Z,84.78
2022-10-04T10:36:30.483Z,84.04
2022-10-04T10:39:19.808Z,85.89
2022-10-04T10:42:07.535Z,89.65
2022-10-04T10:45:13.091Z,86.64
2022-10-04T10:47:52.854Z,84.63
2022-10-04T10:50:57.478Z,79.37
2022-10-04T10:53:50.521Z,73.04
2022-10-04T10:56:58.350Z,68.64
2022-10-04T11:00:00.731Z,63.74
2022-10-04T11:03:13.702Z,59.92
2022-10-04T11:06:14.290Z,64.09
2022-10-04T11:09:16.045Z,61.25
2022-10-04T11:12:33.643Z,65.90
2022-10-04T11:15:49.653Z,67.83
2022-10-04T11:18:46.591Z,72.92
2022-10-04T11:21:45.653Z,82.48
2022-10-04T11:24:48.151Z,76.44
2022-10-04T11:27:30.005Z,84.96
2022-10-04T11:30:11.476Z,88.91
2022-10-04T11:33:24.867Z,86.02
2022-10-04T11:36:35.811Z,89.54
2022-10-04T11:39:22.661Z,84.61
2022-10-04T11:41:56.463Z,80.89
2022-10-04T11:44:47.719Z,74.17
2022-10-04T11:47:30.454Z,73.82
2022-10-04T11:50:25.441Z,70.17
2022-10-04T11:53:30.713Z,65.50
2022-10-04T11:56:17.258Z,69.91
2022-10-04T11:59:01.714Z,72.00
2022-10-04T12:02:13.444Z,67.81
2022-10-04T12:05:18.579Z,73.53
2022-10-04T12:08:01.686Z,74.59
2022-10-04T12:10:38.264Z,80.93
2022-10-04T12:13:28.585Z,82.96
2022-10-04T12:16:41.503Z,84.34
2022-10-04T12:19:51.418Z,80.62
2022-10-04T12:22:57.613Z,72.41
2022-10-04T12:25:54.342Z,67.88
2022-10-04T12:28:49.546Z,67.74
2022-10-04T12:31:25.282Z,63.39
2022-10-04T12:34:06.386Z,58.01
2022-10-04T12:36:53.424Z,62.54
2022-10-04T12:39:46.055Z,62.26
2022-10-04T12:42:32.343Z,61.80
2022-10-04T12:45:30.268Z,64.57
2022-10-04T12:48:11.717Z,65.62
2022-10-04T12:50:53.946Z,66.33
2022-10-04T12:53:35.141Z,57.02
2022-10-04T12:56:10.404Z,62.63
2022-10-04T12:58:54.318Z,60.38
2022-10-04T13:01:33.357Z,60.65
2022-10-04T13:04:13.297Z,58.67
2022-10-04T13:06:59.542Z,66.11
2022-10-04T13:09:59.820Z,62.08
2022-10-04T13:13:05.051Z,58.23
2022-10-04T13:18:41.975Z,53.92
2022-10-04T13:21:13.630Z,60.70
2022-10-04T13:23:55.347Z,62.26
2022-10-04T13:26:38.593Z,62.95
2022-10-04T13:29:16.583Z,67.48
2022-10-04T13:31:52.609Z,65.55
2022-10-04T13:34:37.345Z,65.11
2022-10-04T13:37:38.823Z,71.38
2022-10-04T13:40:38.000Z,76.99
2022-10-04T13:43:42.375Z,80.72
2022-10-04T13:46:28.131Z,85.49
2022-10-04T13:49:21.474Z,85.53
2022-10-04T13:52:32.508Z,86.16
2022-10-04T13:55:35.896Z,86.79
2022-10-04T13:58:30.439Z,80.43
2022-10-04T14:01:23.554Z,74.58
2022-10-04T14:04:10.942Z,71.81
2022-10-04T14:07:07.899Z,76.81
2022-10-04T14:10:05.351Z,79.49
2022-10-04T14:13:12.770Z,82.83
2022-10-04T14:16:16.932Z,83.52
2022-10-04T14:19:24.233Z,85.05
2022-10-04T14:22:37.906Z,87.18
2022-10-04T14:25:42.395Z,88.34
2022-10-04T14:28:37.124Z,89.36
2022-10-04T14:31:37.180Z,88.63
2022-10-04T14:34:31.292Z,89.23
2022-10-04T14:37:39.509Z,89.62
2022-10-04T14:40:46.028Z,88.33
2022-10-04T14:44:00.100Z,86.35
2022-10-04T14:46:40.598Z,88.92
2022-10-04T14:49:24.146Z,89.06
2022-10-04T14:52:14.482Z,89.13
2022-10-04T14:54:54.277Z,89.72
2022-10-04T14:57:44.354Z,89.42
2022-10-04T15:00:22.066Z,89.86
2022-10-04T15:03:34.382Z,90.06
2022-10-04T15:06:15.480Z,90.82
2022-10-04T15:09:19.073Z,90.42
2022-10-04T15:12:25.348Z,90.39
2022-10-04T15:15:18.530Z,90.07
2022-10-04T15:18:00.130Z,91.37
2022-10-04T15:20:36.969Z,92.41
2022-10-04T15:23:16.278Z,92.64
2022-10-04T15:25:47.567Z,93.08
2022-10-04T15:28:42.139Z,93.11
2022-10-04T15:31:24.426Z,93.02
2022-10-04T15:34:08.396Z,93.28
2022-10-04T15:37:10.168Z,93.77
2022-10-04T15:40:09.872Z,93.81
2022-10-04T15:42:42.136Z,95.13
2022-10-04T15:45:48.008Z,94.61
2022-10-04T15:48:37.073Z,95.27
2022-10-04T15:51:17.617Z,96.04
2022-10-04T15:54:07.154Z,96.29
2022-10-04T15:56:48.552Z,96.51
2022-10-04T15:59:48.275Z,96.40
2022-10-04T16:02:56.447Z,96.61
2022-10-04T16:05:36.769Z,96.76
2022-10-04T16:08:41.963Z,97.19
2022-10-04T16:11:42.792Z,97.36
2022-10-04T16:14:38.817Z,97.95
2022-10-04T16:17:38.468Z,98.55
2022-10-04T16:20:55.408Z,97.90
2022-10-04T16:23:36.782Z,97.99
2022-10-04T16:26:10.144Z,98.38
2022-10-04T16:29:02.235Z,98.25
2022-10-04T16:31:54.664Z,98.96
2022-10-04T16:34:52.045Z,98.93
2022-10-04T16:37:32.084Z,100.00
2022-10-04T16:40:07.173Z,100.00
2022-10-04T16:42:48.899Z,100.00
2022-10-04T16:45:52.097Z,100.00
2022-10-04T16:48:38.998Z,100.00
2022-10-04T16:51:35.961Z,100.00
2022-10-04T16:54:17.564Z,100.00
2022-10-04T16:57:23.734Z,100.00
2022-10-04T16:59:55.425Z,100.00
2022-10-04T17:03:08.754Z,100.00
2022-10-04T17:05:50.292Z,100.00
2022-10-04T17:08:41.934Z,100.00
2022-10-04T17:11:36.177Z,100.00
2022-10-04T17:14:23.194Z,100.00
2022-10-04T17:16:57.592Z,100.00
2022-10-04T17:19:35.643Z,100.00
2022-10-04T17:22:17.526Z,100.00
2022-10-04T17:24:58.562Z,100.00
2022-10-04T17:27:35.259Z,100.00
2022-10-04T17:30:17.039Z,100.00
2022-10-04T17:33:24.385Z,100.00
2022-10-04T17:36:19.464Z,100.00
2022-10-04T17:39:00.289Z,100.00
2022-10-04T17:41:45.552Z,100.00
2022-10-04T17:44:28.851Z,100.00
2022-10-04T17:47:06.564Z,100.00
2022-10-04T17:50:05.683Z,100.00
2022-10-04T17:53:02.344Z,100.00
2022-10-04T17:55:46.113Z,100.00
2022-10-04T17:58:19.159Z,100.00
2022-10-04T18:00:57.414Z,100.00
2022-10-04T18:03:37.430Z,100.00
2022-10-04T18:06:18.926Z,100.00
2022-10-04T18:08:53.573Z,100.00
2022-10-04T18:11:30.109Z,100.00
2022-10-04T18:14:04.136Z,100.00
2022-10-04T18:16:46.464Z,100.00
2022-10-04T18:19:59.291Z,100.00
2022-10-04T18:22:29.397Z,100.00
2022-10-04T18:25:15.842Z,100.00
2022-10-04T18:27:53.963Z,100.00
2022-10-04T18:30:24.529Z,100.00
2022-10-04T18:32:57.590Z,100.00
2022-10-04T18:35:30.152Z,100.00
2022-10-04T18:38:14.759Z,100.00
2022-10-04T18:40:45.548Z,100.00
2022-10-04T18:43:30.000Z,100.00
2022-10-04T18:46:04.672Z,100.00
2022-10-04T18:48:45.121Z,100.00
2022-10-04T18:51:28.818Z,100.00
2022-10-04T18:54:13.699Z,100.00
2022-10-04T18:56:53.030Z,100.00
2022-10-04T18:59:53.461Z,100.00
2022-10-04T19:02:30.302Z,100.00
2022-10-04T19:05:07.400Z,100.00
2022-10-04T19:07:44.540Z,100.00
2022-10-04T19:10:33.660Z,100.00
2022-10-04T19:13:20.792Z,100.00
2022-10-04T19:16:12.136Z,100.00
2022-10-04T19:19:15.441Z,100.00
2022-10-04T19:21:51.430Z,100.00
2022-10-04T19:24:42.512Z,100.00
2022-10-04T19:27:22.778Z,100.00
2022-10-04T19:30:05.065Z,100.00
2022-10-04T19:32:44.036Z,100.00
2022-10-04T19:35:29.382Z,100.00
2022-10-04T19:38:06.834Z,100.00
2022-10-04T19:40:48.748Z,100.00
2022-10-04T19:43:27.447Z,100.00
2022-10-04T19:46:11.921Z,100.00
2022-10-04T19:48:50.058Z,100.00
2022-10-04T19:51:28.517Z,100.00
2022-10-04T19:54:04.728Z,100.00
2022-10-04T19:56:41.912Z,100.00
2022-10-04T19:59:17.392Z,100.00
2022-10-04T20:01:46.409Z,100.00
2022-10-04T20:04:34.199Z,100.00
2022-10-04T20:07:06.418Z,100.00
2022-10-04T20:09:52.950Z,100.00
2022-10-04T20:12:36.940Z,100.00
2022-10-04T20:15:26.641Z,100.00
2022-10-04T20:17:58.438Z,100.00
2022-10-04T20:21:05.571Z,100.00
2022-10-04T20:23:56.763Z,100.00
2022-10-04T20:27:10.088Z,100.00
2022-10-04T20:30:05.946Z,100.00
2022-10-04T20:32:56.497Z,100.00
2022-10-04T20:36:06.091Z,100.00
2022-10-04T20:38:49.626Z,100.00
2022-10-04T20:42:22.936Z,100.00
2022-10-04T20:44:57.748Z,100.00
2022-10-04T20:47:40.714Z,100.00
2022-10-04T20:50:17.656Z,100.00
2022-10-04T20:52:48.660Z,100.00
2022-10-04T20:55:27.622Z,100.00
2022-10-04T20:57:59.350Z,100.00
2022-10-04T21:00:34.069Z,100.00
2022-10-04T21:03:15.803Z,100.00
2022-10-04T21:05:47.760Z,100.00
2022-10-04T21:08:25.014Z,100.00
2022-10-04T21:11:05.379Z,100.00
2022-10-04T21:13:48.580Z,100.00
2022-10-04T21:16:35.433Z,100.00
2022-10-04T21:19:48.726Z,100.00
2022-10-04T21:22:36.198Z,100.00
2022-10-04T21:25:31.288Z,100.00
2022-10-04T21:28:25.081Z,100.00
2022-10-04T21:30:54.007Z,100.00
2022-10-04T21:33:22.659Z,100.00
2022-10-04T21:35:52.518Z,100.00
2022-10-04T21:38:22.769Z,100.00
2022-10-04T21:40:57.720Z,100.00
2022-10-04T21:43:27.347Z,100.00
2022-10-04T21:45:56.114Z,100.00
2022-10-04T21:48:25.405Z,100.00
2022-10-04T21:50:55.385Z,100.00
2022-10-04T21:53:25.555Z,100.00
2022-10-04T21:55:54.414Z,100.00
2022-10-04T21:58:24.165Z,100.00
2022-10-04T22:00:52.891Z,100.00
2022-10-04T22:03:21.783Z,100.00
2022-10-04T22:05:50.524Z,100.00
2022-10-04T22:08:19.977Z,100.00
2022-10-04T22:10:54.250Z,100.00
2022-10-04T22:13:26.977Z,100.00
2022-10-04T22:15:55.949Z,100.00
2022-10-04T22:18:24.439Z,100.00
2022-10-04T22:20:54.546Z,100.00
2022-10-04T22:23:30.470Z,100.00
2022-10-04T22:26:01.085Z,100.00
2022-10-04T22:28:32.113Z,100.00
2022-10-04T22:31:01.406Z,100.00
2022-10-04T22:33:35.676Z,100.00
2022-10-04T22:36:15.270Z,100.00
2022-10-04T22:38:49.014Z,100.00
2022-10-04T22:41:20.714Z,100.00
2022-10-04T22:43:51.085Z,100.00
2022-10-04T22:46:21.523Z,100.00
2022-10-04T22:48:52.350Z,100.00
2022-10-04T22:51:22.118Z,100.00
2022-10-04T22:53:50.604Z,100.00
2022-10-04T22:56:20.818Z,100.00
2022-10-04T22:58:50.128Z,100.00
2022-10-04T23:01:19.950Z,100.00
2022-10-04T23:03:50.214Z,100.00
2022-10-04T23:06:18.987Z,100.00
2022-10-04T23:08:47.585Z,100.00
2022-10-04T23:11:16.598Z,100.00
2022-10-04T23:13:47.054Z,100.00
2022-10-04T23:16:24.622Z,100.00
2022-10-04T23:19:02.066Z,100.00
2022-10-04T23:21:34.939Z,100.00
2022-10-04T23:24:15.754Z,100.00
2022-10-04T23:26:47.519Z,100.00
2022-10-04T23:29:20.025Z,100.00
2022-10-04T23:31:50.089Z,100.00
2022-10-04T23:34:23.181Z,100.00
2022-10-04T23:36:53.628Z,100.00
2022-10-04T23:39:26.539Z,100.00
2022-10-04T23:41:56.641Z,100.00
2022-10-04T23:44:35.021Z,100.00
2022-10-04T23:47:04.788Z,100.00
2022-10-04T23:49:33.545Z,100.00
2022-10-04T23:52:04.943Z,100.00
2022-10-04T23:54:33.635Z,100.00
2022-10-04T23:57:02.250Z,100.00
2022-10-04T23:59:32.850Z,100.00
